Startpagina
METAR-TAF:

METAR-TAF

Vliegvelden :

Seward, Alaska, Verenigde Staten

breedte: 60-07N, lengte: 149-27W, hoogte: 9 m

Actueel weer

Dit bericht is 29 minuten geleden gemaakt, om 16:53 UTC
Wind 20 kt uit het noordnoordoosten met uitschieters tot 33 kt
Temperatuur -16°C
Vochtigheid 50%
Druk 989 hPa
Zicht: 16.1 km
Onbewolkt

METAR: PAWD 261653Z AUTO 02020G33KT 10SM CLR M16/M24 A2921 RMK AO2 PK WND 01038/1638 SLP891 T11561239 TSNO $

Tijdstip: 08:22 (17:22 UTC)


TAF: ontbreekt

Waarnemingen en weersverwachtingen van meer dan 4000 vliegvelden (METAR en TAF).

De beschikbare stations zijn de gele en rode punten op de kaart.

Ga met uw muis naar het station om de naam te zien.

Klik dan om waarnemingen en weersverwachtingen te zien.

kaart wijzigen: klik op de groene knoppen met een zwart kruis om in te zoomen, op de groene knop met een streepje om uit te zoomen of op de groene pijlen voor aangrenzende kaarten.


METAR-TAF: